createdAt,value
2019-04-23T00:00:42.469Z,5.80
2019-04-23T00:03:10.090Z,5.70
2019-04-23T00:05:54.918Z,5.70
2019-04-23T00:08:20.092Z,5.60
2019-04-23T00:10:44.520Z,5.60
2019-04-23T00:13:16.276Z,5.60
2019-04-23T00:16:10.817Z,5.60
2019-04-23T00:18:37.395Z,5.50
2019-04-23T00:21:11.719Z,5.50
2019-04-23T00:23:35.155Z,5.50
2019-04-23T00:26:27.137Z,5.50
2019-04-23T00:28:56.796Z,5.40
2019-04-23T00:31:23.963Z,5.40
2019-04-23T00:33:50.663Z,5.40
2019-04-23T00:36:20.959Z,5.40
2019-04-23T00:41:15.979Z,5.30
2019-04-23T00:43:54.789Z,5.30
2019-04-23T00:46:22.281Z,5.20
2019-04-23T00:51:16.760Z,5.10
2019-04-23T00:53:53.490Z,5.20
2019-04-23T00:58:56.462Z,5.00
2019-04-23T01:01:33.052Z,5.10
2019-04-23T01:03:55.162Z,5.00
2019-04-23T01:08:52.236Z,5.00
2019-04-23T01:16:21.281Z,4.80
2019-04-23T01:21:26.526Z,4.70
2019-04-23T01:24:08.121Z,4.60
2019-04-23T01:27:33.639Z,4.60
2019-04-23T01:29:52.445Z,4.60
2019-04-23T01:32:15.835Z,4.70
2019-04-23T01:34:49.554Z,4.80
2019-04-23T01:37:20.639Z,4.70
2019-04-23T01:39:49.888Z,4.60
2019-04-23T01:42:31.824Z,4.70
2019-04-23T01:44:53.788Z,4.50
2019-04-23T01:47:19.838Z,4.50
2019-04-23T01:49:57.666Z,4.50
2019-04-23T01:52:27.517Z,4.50
2019-04-23T01:54:51.980Z,4.50
2019-04-23T01:57:26.328Z,4.40
2019-04-23T01:59:55.136Z,4.40
2019-04-23T02:02:31.637Z,4.40
2019-04-23T02:04:55.798Z,4.30
2019-04-23T02:07:30.647Z,4.30
2019-04-23T02:09:55.800Z,4.30
2019-04-23T02:12:30.533Z,4.20
2019-04-23T02:14:57.282Z,4.10
2019-04-23T02:17:24.217Z,4.10
2019-04-23T02:20:02.275Z,4.20
2019-04-23T02:22:31.421Z,4.10
2019-04-23T02:25:03.575Z,4.10
2019-04-23T02:27:37.926Z,4.10
2019-04-23T02:30:20.726Z,4.10
2019-04-23T02:32:37.703Z,4.00
2019-04-23T02:37:54.580Z,4.00
2019-04-23T02:45:10.346Z,3.90
2019-04-23T02:47:42.623Z,3.90
2019-04-23T02:50:24.867Z,3.90
2019-04-23T02:52:42.918Z,3.90
2019-04-23T02:55:18.232Z,3.90
2019-04-23T03:00:26.241Z,3.90
2019-04-23T03:02:54.694Z,3.80
2019-04-23T03:13:04.449Z,3.80
2019-04-23T03:15:22.181Z,3.80
2019-04-23T03:18:21.092Z,3.80
2019-04-23T03:20:48.356Z,3.70
2019-04-23T03:23:25.129Z,3.70
2019-04-23T03:28:27.326Z,3.80
2019-04-23T03:38:39.444Z,3.90
2019-04-23T03:46:13.886Z,4.30
2019-04-23T03:48:34.130Z,4.50
2019-04-23T03:51:11.852Z,4.80
2019-04-23T03:53:34.364Z,5.10
2019-04-23T03:56:05.083Z,5.20
2019-04-23T03:58:36.779Z,5.40
2019-04-23T04:01:07.758Z,5.80
2019-04-23T04:03:50.212Z,6.10
2019-04-23T04:08:29.123Z,6.70
2019-04-23T04:18:38.696Z,7.40
2019-04-23T04:23:33.866Z,7.50
2019-04-23T04:28:39.004Z,7.80
2019-04-23T04:33:58.529Z,8.60
2019-04-23T04:38:46.998Z,9.40
2019-04-23T04:51:08.014Z,11.20
2019-04-23T04:58:42.095Z,12.30
2019-04-23T05:01:07.924Z,13.00
2019-04-23T05:03:29.700Z,13.50
2019-04-23T05:11:11.721Z,14.10
2019-04-23T05:13:44.628Z,14.40
2019-04-23T05:16:10.107Z,14.50
2019-04-23T05:18:38.138Z,15.00
2019-04-23T05:21:10.251Z,15.50
2019-04-23T05:23:42.906Z,15.70
2019-04-23T05:26:17.840Z,16.10
2019-04-23T05:28:58.587Z,16.70
2019-04-23T05:31:27.852Z,16.30
2019-04-23T05:33:46.459Z,16.40
2019-04-23T05:39:30.670Z,18.90
2019-04-23T05:41:33.840Z,20.70
2019-04-23T05:43:51.081Z,21.20
2019-04-23T05:46:22.344Z,22.30
2019-04-23T05:48:48.721Z,22.50
2019-04-23T05:51:24.254Z,21.90
2019-04-23T05:53:47.365Z,21.40
2019-04-23T05:56:21.318Z,21.20
2019-04-23T05:58:53.049Z,20.70
2019-04-23T06:04:03.685Z,19.60
2019-04-23T06:08:58.661Z,17.30
2019-04-23T06:11:37.008Z,17.50
2019-04-23T06:16:31.330Z,17.60
2019-04-23T06:19:02.986Z,18.40
2019-04-23T06:21:34.254Z,17.80
2019-04-23T06:24:05.972Z,17.80
2019-04-23T06:26:40.160Z,17.90
2019-04-23T06:29:08.849Z,18.70
2019-04-23T06:31:32.553Z,19.20
2019-04-23T06:34:10.868Z,21.00
2019-04-23T06:36:32.598Z,22.50
2019-04-23T06:38:58.844Z,23.60
2019-04-23T06:41:30.601Z,25.10
2019-04-23T06:44:18.071Z,26.30
2019-04-23T06:49:09.213Z,26.20
2019-04-23T06:51:46.716Z,27.30
2019-04-23T06:54:03.355Z,27.70
2019-04-23T06:56:43.296Z,27.40
2019-04-23T06:59:10.914Z,26.10
2019-04-23T07:01:50.392Z,26.40
2019-04-23T07:04:10.707Z,26.20
2019-04-23T07:06:38.308Z,26.60
2019-04-23T07:09:13.834Z,27.50
2019-04-23T07:14:21.910Z,30.70
2019-04-23T07:16:38.471Z,31.00
2019-04-23T07:19:17.907Z,30.60
2019-04-23T07:21:35.250Z,31.10
2019-04-23T07:24:08.472Z,28.60
2019-04-23T07:29:08.967Z,31.00
2019-04-23T07:31:41.034Z,30.50
2019-04-23T07:34:10.144Z,31.50
2019-04-23T07:36:44.456Z,32.10
2019-04-23T07:39:16.011Z,32.10
2019-04-23T07:41:56.832Z,33.60
2019-04-23T07:44:35.507Z,34.80
2019-04-23T07:47:20.410Z,33.50
2019-04-23T07:49:43.294Z,33.80
2019-04-23T07:52:12.955Z,34.70
2019-04-23T07:54:42.553Z,32.90
2019-04-23T07:57:18.728Z,33.30
2019-04-23T08:02:14.464Z,31.30
2019-04-23T08:04:46.187Z,31.00
2019-04-23T08:07:07.062Z,30.90
2019-04-23T08:09:43.955Z,32.30
2019-04-23T08:12:16.991Z,30.80
2019-04-23T08:14:44.501Z,31.00
2019-04-23T08:17:09.061Z,31.00
2019-04-23T08:19:49.900Z,30.40
2019-04-23T08:22:22.204Z,32.10
2019-04-23T08:24:53.648Z,30.40
2019-04-23T08:27:28.228Z,31.20
2019-04-23T08:29:56.042Z,31.60
2019-04-23T08:35:01.211Z,29.20
2019-04-23T08:37:36.421Z,31.00
2019-04-23T08:45:22.655Z,31.70
2019-04-23T08:48:13.979Z,30.10
2019-04-23T08:53:17.691Z,30.40
2019-04-23T08:55:46.400Z,29.40
2019-04-23T08:58:06.101Z,30.50
2019-04-23T09:00:47.357Z,29.70
2019-04-23T09:03:20.334Z,27.30
2019-04-23T09:05:45.212Z,26.80
2019-04-23T09:10:50.103Z,24.40
2019-04-23T09:13:46.699Z,24.20
2019-04-23T09:18:15.826Z,29.90
2019-04-23T09:20:37.444Z,29.40
2019-04-23T09:23:22.384Z,30.00
2019-04-23T09:25:47.789Z,27.70
2019-04-23T09:28:26.026Z,27.40
2019-04-23T09:33:31.258Z,28.20
2019-04-23T09:35:59.249Z,23.70
2019-04-23T09:38:31.684Z,24.10
2019-04-23T09:46:36.055Z,26.50
2019-04-23T09:49:19.038Z,28.10
2019-04-23T09:54:20.349Z,30.50
2019-04-23T09:56:41.633Z,29.20
2019-04-23T09:59:15.718Z,29.40
2019-04-23T10:01:41.299Z,26.50
2019-04-23T10:03:56.964Z,28.30
2019-04-23T10:06:22.726Z,29.40
2019-04-23T10:08:52.223Z,30.30
2019-04-23T10:11:18.159Z,30.20
2019-04-23T10:13:48.380Z,30.10
2019-04-23T10:16:19.378Z,28.50
2019-04-23T10:18:48.930Z,27.80
2019-04-23T10:21:17.667Z,25.80
2019-04-23T10:23:47.489Z,23.00
2019-04-23T10:26:16.571Z,22.30
2019-04-23T10:28:51.561Z,21.60
2019-04-23T10:31:20.833Z,21.60
2019-04-23T10:33:50.290Z,21.60
2019-04-23T10:36:21.937Z,21.70
2019-04-23T10:38:59.507Z,21.10
2019-04-23T10:41:20.205Z,21.20
2019-04-23T10:43:54.057Z,21.40
2019-04-23T10:46:44.140Z,21.30
2019-04-23T10:52:07.131Z,21.20
2019-04-23T10:57:01.806Z,21.20
2019-04-23T11:02:28.947Z,20.80
2019-04-23T11:07:21.967Z,20.60
2019-04-23T11:09:49.674Z,21.00
2019-04-23T11:14:54.732Z,21.30
2019-04-23T11:17:26.971Z,21.50
2019-04-23T11:22:36.212Z,21.70
2019-04-23T11:24:55.308Z,21.50
2019-04-23T11:27:24.263Z,21.30
2019-04-23T11:29:56.464Z,21.20
2019-04-23T11:32:46.644Z,21.30
2019-04-23T11:37:37.333Z,21.00
2019-04-23T11:39:50.746Z,21.10
2019-04-23T11:42:18.161Z,20.90
2019-04-23T11:47:46.951Z,21.00
2019-04-23T11:52:34.434Z,21.20
2019-04-23T11:54:53.908Z,21.20
2019-04-23T11:59:55.686Z,20.70
2019-04-23T12:02:49.759Z,20.90
2019-04-23T12:05:26.854Z,21.00
2019-04-23T12:08:18.147Z,21.20
2019-04-23T12:13:21.447Z,21.20
2019-04-23T12:15:51.796Z,21.40
2019-04-23T12:18:24.040Z,21.30
2019-04-23T12:20:45.059Z,21.30
2019-04-23T12:26:17.758Z,21.10
2019-04-23T12:28:20.767Z,20.90
2019-04-23T12:30:50.573Z,21.10
2019-04-23T12:33:32.133Z,21.00
2019-04-23T12:35:51.983Z,21.20
2019-04-23T12:38:28.302Z,21.40
2019-04-23T12:40:49.254Z,21.40
2019-04-23T12:43:23.750Z,21.50
2019-04-23T12:45:47.085Z,21.40
2019-04-23T12:48:36.789Z,21.20
2019-04-23T12:51:08.435Z,21.20
2019-04-23T12:55:54.500Z,21.40
2019-04-23T13:00:54.353Z,21.00
2019-04-23T13:05:49.158Z,20.70
2019-04-23T13:08:33.645Z,20.50
2019-04-23T13:10:49.989Z,20.60
2019-04-23T13:15:58.342Z,20.70
2019-04-23T13:18:31.212Z,20.80
2019-04-23T13:20:53.972Z,20.90
2019-04-23T13:23:32.542Z,21.10
2019-04-23T13:25:59.595Z,21.00
2019-04-23T13:28:31.976Z,21.10
2019-04-23T13:41:11.078Z,21.20
2019-04-23T13:48:24.573Z,21.20
2019-04-23T13:51:09.332Z,21.00
2019-04-23T13:53:40.826Z,21.00
2019-04-23T13:56:15.413Z,21.00
2019-04-23T13:58:50.417Z,21.00
2019-04-23T14:03:41.286Z,21.00
2019-04-23T14:06:18.198Z,20.90
2019-04-23T14:08:50.459Z,20.70
2019-04-23T14:14:00.052Z,20.80
2019-04-23T14:16:23.144Z,20.90
2019-04-23T14:21:18.893Z,21.00
2019-04-23T14:26:39.503Z,20.70
2019-04-23T14:33:58.386Z,20.80
2019-04-23T14:36:16.002Z,20.70
2019-04-23T14:38:43.859Z,20.70
2019-04-23T14:46:44.139Z,20.80
2019-04-23T14:51:32.050Z,20.70
2019-04-23T14:58:58.229Z,20.70
2019-04-23T15:01:34.787Z,20.60
2019-04-23T15:11:31.869Z,20.60
2019-04-23T15:13:49.400Z,20.60
2019-04-23T15:16:22.647Z,20.70
2019-04-23T15:19:12.917Z,20.70
2019-04-23T15:21:46.647Z,20.70
2019-04-23T15:28:38.545Z,20.60
2019-04-23T15:31:32.898Z,20.50
2019-04-23T15:34:14.203Z,20.50
2019-04-23T15:36:48.539Z,20.50
2019-04-23T15:41:32.130Z,20.40
2019-04-23T15:44:06.074Z,20.50
2019-04-23T15:46:35.436Z,20.50
2019-04-23T15:49:07.627Z,20.50
2019-04-23T15:51:40.879Z,20.40
2019-04-23T15:54:03.078Z,20.40
2019-04-23T15:59:18.590Z,20.30
2019-04-23T16:01:35.133Z,20.30
2019-04-23T16:03:37.340Z,20.20
2019-04-23T16:06:07.855Z,20.20
2019-04-23T16:14:16.705Z,20.00
2019-04-23T16:16:38.762Z,20.00
2019-04-23T16:19:36.070Z,19.90
2019-04-23T16:24:20.484Z,19.80
2019-04-23T16:26:55.597Z,19.70
2019-04-23T16:34:20.900Z,19.60
2019-04-23T16:36:48.605Z,19.60
2019-04-23T16:39:19.696Z,19.60
2019-04-23T16:44:20.032Z,19.50
2019-04-23T16:49:21.993Z,19.30
2019-04-23T16:51:54.223Z,19.20
2019-04-23T16:54:25.101Z,19.20
2019-04-23T16:59:24.587Z,18.90
2019-04-23T17:01:54.024Z,18.70
2019-04-23T17:06:57.561Z,18.50
2019-04-23T17:09:38.607Z,18.40
2019-04-23T17:11:59.350Z,18.30
2019-04-23T17:14:30.243Z,18.10
2019-04-23T17:16:42.729Z,17.90
2019-04-23T17:19:24.552Z,17.90
2019-04-23T17:21:53.380Z,17.70
2019-04-23T17:26:57.274Z,17.40
2019-04-23T17:31:55.958Z,17.20
2019-04-23T17:37:05.285Z,16.80
2019-04-23T17:39:32.047Z,16.70
2019-04-23T17:42:16.043Z,16.50
2019-04-23T17:44:42.527Z,16.20
2019-04-23T17:47:13.681Z,16.10
2019-04-23T17:49:42.179Z,15.90
2019-04-23T17:52:16.771Z,15.90
2019-04-23T17:54:43.285Z,15.70
2019-04-23T18:00:08.343Z,15.40
2019-04-23T18:07:37.811Z,15.20
2019-04-23T18:10:15.044Z,15.00
2019-04-23T18:14:52.770Z,14.70
2019-04-23T18:17:27.054Z,14.50
2019-04-23T18:20:05.068Z,14.30
2019-04-23T18:22:37.151Z,14.20
2019-04-23T18:25:37.604Z,14.00
2019-04-23T18:27:56.705Z,13.90
2019-04-23T18:30:33.565Z,13.80
2019-04-23T18:33:49.738Z,13.70
2019-04-23T18:35:42.719Z,13.60
2019-04-23T18:41:01.270Z,13.30
2019-04-23T18:43:29.430Z,13.20
2019-04-23T18:45:57.371Z,13.10
2019-04-23T18:56:06.575Z,12.80
2019-04-23T18:58:48.536Z,12.80
2019-04-23T19:03:55.547Z,12.60
2019-04-23T19:09:04.406Z,12.30
2019-04-23T19:14:09.896Z,12.10
2019-04-23T19:16:53.442Z,12.10
2019-04-23T19:19:09.562Z,12.10
2019-04-23T19:22:09.219Z,12.20
2019-04-23T19:24:18.568Z,12.20
2019-04-23T19:29:11.721Z,12.00
2019-04-23T19:36:59.645Z,11.70
2019-04-23T19:39:36.593Z,11.60
2019-04-23T19:41:57.474Z,11.50
2019-04-23T19:44:18.225Z,11.50
2019-04-23T19:46:54.832Z,11.30
2019-04-23T19:49:28.807Z,11.30
2019-04-23T19:54:27.995Z,11.30
2019-04-23T19:56:55.113Z,11.40
2019-04-23T19:59:23.576Z,11.30
2019-04-23T20:01:55.200Z,11.20
2019-04-23T20:04:20.445Z,11.30
2019-04-23T20:09:38.738Z,11.20
2019-04-23T20:11:54.677Z,11.20
2019-04-23T20:14:24.085Z,11.10
2019-04-23T20:19:31.634Z,11.00
2019-04-23T20:24:28.257Z,10.80
2019-04-23T20:26:59.358Z,10.70
2019-04-23T20:37:01.093Z,10.30
2019-04-23T20:39:41.011Z,10.30
2019-04-23T20:44:47.503Z,10.30
2019-04-23T20:49:44.288Z,10.50
2019-04-23T20:54:48.969Z,10.50
2019-04-23T21:00:01.902Z,10.30
2019-04-23T21:02:49.482Z,10.30
2019-04-23T21:07:52.583Z,10.20
2019-04-23T21:10:30.698Z,10.00
2019-04-23T21:17:55.907Z,9.80
2019-04-23T21:22:41.589Z,9.80
2019-04-23T21:30:52.155Z,10.10
2019-04-23T21:36:10.524Z,10.10
2019-04-23T21:38:44.583Z,10.10
2019-04-23T21:41:13.818Z,10.00
2019-04-23T21:44:05.430Z,10.30
2019-04-23T21:46:20.447Z,10.40
2019-04-23T21:49:02.129Z,10.30
2019-04-23T21:51:24.488Z,10.30
2019-04-23T21:53:47.785Z,10.20
2019-04-23T21:56:15.459Z,10.10
2019-04-23T21:58:54.939Z,10.10
2019-04-23T22:01:28.099Z,10.20
2019-04-23T22:04:08.760Z,10.10
2019-04-23T22:06:31.646Z,10.00
2019-04-23T22:08:59.134Z,10.00
2019-04-23T22:11:43.895Z,10.00
2019-04-23T22:16:35.650Z,9.80
2019-04-23T22:19:04.014Z,9.80
2019-04-23T22:21:33.386Z,9.70
2019-04-23T22:24:07.251Z,9.60
2019-04-23T22:26:28.535Z,9.50
2019-04-23T22:29:03.719Z,9.40
2019-04-23T22:31:31.443Z,9.40
2019-04-23T22:34:02.299Z,9.60
2019-04-23T22:36:21.127Z,9.60
2019-04-23T22:38:58.085Z,9.60
2019-04-23T22:41:28.244Z,9.70
2019-04-23T22:44:07.025Z,9.90
2019-04-23T22:46:35.381Z,9.90
2019-04-23T22:49:23.233Z,9.80
2019-04-23T22:52:16.587Z,10.00
2019-04-23T22:59:37.893Z,10.00
2019-04-23T23:01:57.222Z,10.10
2019-04-23T23:04:20.195Z,10.00
2019-04-23T23:11:54.286Z,9.90
2019-04-23T23:14:24.188Z,9.90
2019-04-23T23:16:50.378Z,9.90
2019-04-23T23:19:30.194Z,10.00
2019-04-23T23:24:21.658Z,10.00
2019-04-23T23:26:54.079Z,10.20
2019-04-23T23:29:46.676Z,10.10
2019-04-23T23:32:00.706Z,10.00
2019-04-23T23:34:28.233Z,10.10
2019-04-23T23:37:44.252Z,10.00
2019-04-23T23:39:35.287Z,9.80
2019-04-23T23:41:59.356Z,9.60
2019-04-23T23:44:33.542Z,9.60
2019-04-23T23:49:24.027Z,9.20
2019-04-23T23:52:13.097Z,9.00
2019-04-23T23:54:19.735Z,8.90
2019-04-23T23:59:41.480Z,9.10
